Time;durP1;ratioP1;P1;durP2;ratioP2;P2;SDS_P1;SDS_P2;PMS_P1;PMS_P2;Temp;Humidity;BMP_temperature;BMP_pressure;BME280_temperature;BME280_humidity;BME280_pressure;Samples;Min_cycle;Max_cycle;Signal;HPM_P1;HPM_P2
2021/12/25 00:00:54;;;;;;;12.23;8.88;;;2.40;99.90;;;;;;4615278;28;10000066;-85
2021/12/25 00:03:20;;;;;;;13.40;9.63;;;2.40;99.90;;;;;;4966822;28;20474;-87
2021/12/25 00:05:52;;;;;;;12.18;9.23;;;2.30;99.90;;;;;;4965852;28;20104;-86
2021/12/25 00:08:26;;;;;;;14.40;10.30;;;2.30;99.90;;;;;;4968318;28;20041;-86
2021/12/25 00:10:53;;;;;;;14.27;11.50;;;2.40;99.90;;;;;;4962119;28;20039;-86
2021/12/25 00:13:19;;;;;;;15.52;11.60;;;2.30;99.90;;;;;;4967599;28;20027;-84
2021/12/25 00:15:50;;;;;;;15.63;11.32;;;2.30;99.90;;;;;;4966535;28;20093;-85
2021/12/25 00:18:16;;;;;;;16.17;11.65;;;2.30;99.90;;;;;;4964533;28;20458;-84
2021/12/25 00:20:41;;;;;;;14.90;11.80;;;2.30;99.90;;;;;;4962273;28;20055;-84
2021/12/25 00:23:08;;;;;;;16.27;12.13;;;2.30;99.90;;;;;;4960383;28;20041;-85
2021/12/25 00:25:42;;;;;;;16.45;12.65;;;2.20;99.90;;;;;;4961859;28;20078;-84
2021/12/25 00:28:37;;;;;;;17.55;13.20;;;2.20;99.90;;;;;;4962119;28;20043;-84
2021/12/25 00:36:09;;;;;;;18.23;13.43;;;2.30;99.90;;;;;;4962686;28;20513;-84
2021/12/25 00:38:36;;;;;;;17.00;12.80;;;2.30;99.90;;;;;;4959041;28;20074;-83
2021/12/25 00:41:04;;;;;;;16.77;12.45;;;2.20;99.90;;;;;;4962858;28;20031;-84
2021/12/25 00:43:29;;;;;;;18.52;12.02;;;2.20;99.90;;;;;;4955613;28;20501;-83
2021/12/25 00:45:55;;;;;;;15.27;10.57;;;2.20;99.90;;;;;;4961109;28;20023;-83
2021/12/25 00:48:21;;;;;;;13.25;9.45;;;2.20;99.90;;;;;;4961235;28;20031;-82
2021/12/25 00:50:46;;;;;;;12.75;9.32;;;2.20;99.90;;;;;;4964369;28;20026;-82
2021/12/25 00:53:12;;;;;;;12.93;9.40;;;2.20;99.90;;;;;;4959968;28;20026;-83
2021/12/25 00:55:37;;;;;;;13.70;9.88;;;2.20;99.90;;;;;;4963991;28;20399;-82
2021/12/25 00:58:03;;;;;;;11.65;9.23;;;2.20;99.90;;;;;;4965721;28;20038;-82
2021/12/25 01:00:29;;;;;;;12.80;9.40;;;2.10;99.90;;;;;;4963337;28;20033;-83
2021/12/25 01:02:54;;;;;;;14.05;10.40;;;2.20;99.90;;;;;;4961534;28;20054;-82
2021/12/25 01:05:20;;;;;;;14.73;11.05;;;2.20;99.90;;;;;;4964704;28;20027;-82
2021/12/25 01:07:46;;;;;;;16.55;12.23;;;2.10;99.90;;;;;;4962204;28;20041;-83
2021/12/25 01:10:16;;;;;;;16.23;11.73;;;2.20;99.90;;;;;;4967558;28;20045;-83
2021/12/25 01:15:14;;;;;;;19.00;12.00;;;2.10;99.90;;;;;;4965167;28;20078;-83
2021/12/25 01:20:32;;;;;;;16.50;11.73;;;2.10;99.90;;;;;;4960269;28;20065;-82
2021/12/25 01:49:31;;;;;;;13.27;9.45;;;2.20;99.90;;;;;;4961010;28;20029;-80
2021/12/25 01:51:57;;;;;;;13.55;10.52;;;2.20;99.90;;;;;;4959735;28;20042;-80
2021/12/25 01:54:23;;;;;;;13.50;10.27;;;2.10;99.90;;;;;;4958572;28;20097;-80
2021/12/25 01:56:48;;;;;;;14.32;10.32;;;2.10;99.90;;;;;;4964351;28;20484;-80
2021/12/25 01:59:15;;;;;;;10.40;8.63;;;2.10;99.90;;;;;;4959106;28;20034;-79
2021/12/25 02:01:40;;;;;;;13.00;9.73;;;2.10;99.90;;;;;;4963683;28;20114;-79
2021/12/25 02:04:06;;;;;;;12.57;9.48;;;2.10;99.90;;;;;;4963636;28;20105;-79
2021/12/25 02:06:32;;;;;;;12.90;10.15;;;2.10;99.90;;;;;;4963758;28;20050;-79
2021/12/25 02:08:58;;;;;;;13.75;9.00;;;2.10;99.90;;;;;;4959197;28;20090;-79
2021/12/25 02:11:25;;;;;;;15.10;8.63;;;2.10;99.90;;;;;;4961769;28;20034;-79
2021/12/25 02:13:50;;;;;;;10.90;8.23;;;2.10;99.90;;;;;;4961357;28;20039;-79
2021/12/25 02:16:20;;;;;;;11.77;8.45;;;2.10;99.90;;;;;;4965142;28;20479;-78
2021/12/25 02:19:06;;;;;;;11.43;8.75;;;2.10;99.90;;;;;;4960667;28;20415;-79
2021/12/25 02:21:39;;;;;;;13.32;9.60;;;2.10;99.90;;;;;;4960258;28;20031;-78
2021/12/25 02:24:07;;;;;;;13.75;10.13;;;2.10;99.90;;;;;;4968851;28;20049;-78
2021/12/25 02:26:34;;;;;;;13.43;9.45;;;2.00;99.90;;;;;;4953370;28;20034;-78
2021/12/25 02:29:00;;;;;;;14.55;10.50;;;2.00;99.90;;;;;;4958018;28;20033;-80
2021/12/25 02:31:25;;;;;;;14.90;10.32;;;1.90;99.90;;;;;;4960225;28;20030;-80
2021/12/25 02:33:52;;;;;;;14.00;9.85;;;1.90;99.90;;;;;;4959488;28;20427;-79
2021/12/25 02:36:18;;;;;;;15.30;10.57;;;1.90;99.90;;;;;;4961398;28;20034;-81
2021/12/25 02:38:45;;;;;;;13.65;9.55;;;2.00;99.90;;;;;;4960622;28;20053;-80
2021/12/25 02:41:11;;;;;;;13.02;9.48;;;1.90;99.90;;;;;;4968394;28;20043;-79
2021/12/25 02:43:38;;;;;;;13.73;9.27;;;1.90;99.90;;;;;;4961995;28;20500;-80
2021/12/25 02:46:05;;;;;;;11.18;8.30;;;2.00;99.90;;;;;;4960221;28;20046;-80
2021/12/25 02:48:33;;;;;;;11.32;8.68;;;2.00;99.90;;;;;;4957889;28;20444;-79
2021/12/25 02:50:59;;;;;;;12.55;8.95;;;2.00;99.90;;;;;;4957283;28;20110;-80
2021/12/25 02:53:25;;;;;;;12.07;8.55;;;2.00;99.90;;;;;;4965994;28;20035;-80
2021/12/25 02:55:51;;;;;;;12.05;8.85;;;2.00;99.90;;;;;;4964428;28;20045;-79
2021/12/25 02:58:19;;;;;;;12.77;8.63;;;2.00;99.90;;;;;;4959903;28;20035;-80
2021/12/25 03:00:44;;;;;;;9.18;7.32;;;2.00;99.90;;;;;;4963506;28;20046;-79
2021/12/25 03:03:10;;;;;;;9.70;7.43;;;2.10;99.90;;;;;;4958569;28;20035;-79
2021/12/25 03:05:37;;;;;;;10.05;7.45;;;2.10;99.90;;;;;;4957634;28;20027;-78
2021/12/25 03:08:05;;;;;;;8.77;7.00;;;2.00;99.90;;;;;;4963500;28;20039;-79
2021/12/25 03:10:33;;;;;;;9.88;6.25;;;2.10;99.90;;;;;;4961457;28;20360;-79
2021/12/25 03:13:19;;;;;;;8.25;6.80;;;2.10;99.90;;;;;;4962249;28;20050;-78
2021/12/25 03:15:46;;;;;;;9.68;7.60;;;2.00;99.90;;;;;;4959844;28;20034;-79
2021/12/25 03:18:35;;;;;;;9.43;7.32;;;2.10;99.90;;;;;;4960035;28;20062;-79
2021/12/25 03:21:04;;;;;;;9.80;7.43;;;2.00;99.90;;;;;;4961452;28;20031;-79
2021/12/25 03:23:32;;;;;;;10.05;7.85;;;2.00;99.90;;;;;;4965291;28;20030;-79
2021/12/25 03:25:59;;;;;;;8.82;7.18;;;2.00;99.90;;;;;;4955322;28;20035;-78
2021/12/25 03:28:29;;;;;;;7.93;6.13;;;2.00;99.90;;;;;;4959198;28;20458;-79
2021/12/25 03:30:59;;;;;;;9.40;6.00;;;2.00;99.90;;;;;;4960469;28;20145;-79
2021/12/25 03:33:25;;;;;;;7.97;6.47;;;2.00;99.90;;;;;;4958942;28;20038;-79
2021/12/25 03:35:51;;;;;;;7.55;6.22;;;2.00;99.90;;;;;;4963076;28;20487;-78
2021/12/25 03:38:20;;;;;;;7.43;6.00;;;2.00;99.90;;;;;;4967282;28;20030;-79
2021/12/25 03:40:47;;;;;;;7.65;6.20;;;2.00;99.90;;;;;;4951500;28;20035;-79
2021/12/25 03:43:13;;;;;;;7.13;5.93;;;2.00;99.90;;;;;;4959412;28;20058;-79
2021/12/25 03:45:39;;;;;;;6.32;5.45;;;1.90;99.90;;;;;;4961033;28;20031;-79
2021/12/25 03:59:06;;;;;;;6.88;4.57;;;1.80;99.90;;;;;;4963406;28;20093;-79
2021/12/25 04:04:17;;;;;;;4.68;3.97;;;1.80;99.90;;;;;;4963164;28;20023;-80
2021/12/25 04:06:51;;;;;;;4.60;3.92;;;1.70;99.90;;;;;;4959903;28;20486;-80
2021/12/25 04:09:24;;;;;;;5.18;4.00;;;1.80;99.90;;;;;;4954521;28;20124;-80
2021/12/25 04:11:51;;;;;;;4.78;4.15;;;1.80;99.90;;;;;;4969146;28;20113;-81
2021/12/25 04:14:17;;;;;;;4.32;3.42;;;1.80;99.90;;;;;;4961295;28;20514;-79
2021/12/25 04:16:43;;;;;;;5.05;3.95;;;1.80;99.90;;;;;;4954992;28;20034;-80
2021/12/25 04:19:09;;;;;;;6.38;4.07;;;1.70;99.90;;;;;;4966813;28;20035;-80
2021/12/25 04:21:36;;;;;;;4.95;4.28;;;1.70;99.90;;;;;;4967247;28;20030;-82
2021/12/25 04:24:03;;;;;;;4.57;3.97;;;1.70;99.90;;;;;;4965821;28;20050;-82
2021/12/25 04:26:29;;;;;;;4.53;3.60;;;1.70;99.90;;;;;;4966349;28;20027;-83
2021/12/25 04:29:16;;;;;;;4.13;3.50;;;1.70;99.90;;;;;;4963907;28;20022;-83
2021/12/25 05:04:13;;;;;;;7.55;5.32;;;1.50;99.90;;;;;;4964613;28;20483;-82
2021/12/25 05:06:38;;;;;;;7.93;5.72;;;1.50;99.90;;;;;;4964367;28;20562;-82
2021/12/25 05:09:04;;;;;;;9.38;5.97;;;1.40;99.90;;;;;;4964086;28;20110;-82
2021/12/25 05:11:30;;;;;;;7.90;6.05;;;1.40;99.90;;;;;;4968489;28;20038;-83
2021/12/25 05:13:56;;;;;;;7.63;5.95;;;1.40;99.90;;;;;;4963511;28;20035;-83
2021/12/25 05:16:21;;;;;;;8.70;5.70;;;1.40;99.90;;;;;;4960929;28;20114;-82
2021/12/25 05:18:49;;;;;;;6.80;5.38;;;1.40;99.90;;;;;;4960969;28;20046;-82
2021/12/25 05:21:15;;;;;;;9.07;5.93;;;1.40;99.90;;;;;;4966726;28;20039;-83
2021/12/25 05:23:40;;;;;;;6.95;5.50;;;1.30;99.90;;;;;;4961030;28;20034;-84
2021/12/25 05:26:06;;;;;;;7.93;5.70;;;1.30;99.90;;;;;;4963708;28;20038;-82
2021/12/25 05:28:45;;;;;;;8.43;5.10;;;1.40;99.90;;;;;;4963764;28;20061;-83
2021/12/25 05:31:15;;;;;;;7.97;5.20;;;1.30;99.90;;;;;;4957487;28;20041;-82
2021/12/25 05:33:42;;;;;;;7.03;5.07;;;1.40;99.90;;;;;;4962088;28;20058;-82
2021/12/25 05:36:08;;;;;;;6.78;5.25;;;1.30;99.90;;;;;;4966768;28;20047;-82
2021/12/25 05:38:34;;;;;;;7.45;5.47;;;1.30;99.90;;;;;;4954106;28;20023;-83
2021/12/25 05:41:01;;;;;;;7.50;5.40;;;1.30;99.90;;;;;;4957924;28;20073;-83
2021/12/25 05:43:27;;;;;;;7.70;5.40;;;1.40;99.90;;;;;;4965952;28;20035;-83
2021/12/25 05:45:53;;;;;;;7.70;5.38;;;1.30;99.90;;;;;;4963650;28;20086;-83
2021/12/25 05:48:18;;;;;;;7.72;5.30;;;1.30;99.90;;;;;;4965962;28;20034;-83
2021/12/25 05:50:44;;;;;;;7.22;5.10;;;1.30;99.90;;;;;;4955016;28;20041;-83
2021/12/25 05:53:10;;;;;;;6.53;5.18;;;1.40;99.90;;;;;;4961720;28;20035;-82
2021/12/25 05:55:36;;;;;;;5.93;4.82;;;1.30;99.90;;;;;;4953790;28;20061;-83
2021/12/25 05:58:03;;;;;;;7.38;5.53;;;1.30;99.90;;;;;;4961837;28;20043;-83
2021/12/25 06:00:30;;;;;;;6.50;5.30;;;1.30;99.90;;;;;;4965274;28;20066;-83
2021/12/25 06:02:56;;;;;;;5.88;4.70;;;1.20;99.90;;;;;;4961493;28;20063;-83
2021/12/25 06:05:22;;;;;;;6.18;4.88;;;1.20;99.90;;;;;;4951591;28;20069;-82
2021/12/25 06:07:47;;;;;;;6.15;4.80;;;1.20;99.90;;;;;;4966623;28;20082;-84
2021/12/25 06:10:13;;;;;;;6.43;5.22;;;1.20;99.90;;;;;;4963725;28;20031;-83
2021/12/25 06:12:41;;;;;;;7.55;5.13;;;1.20;99.90;;;;;;4959792;28;20035;-82
2021/12/25 06:15:13;;;;;;;7.07;5.40;;;1.10;99.90;;;;;;4965777;28;20115;-82
2021/12/25 06:17:39;;;;;;;6.30;4.93;;;1.10;99.90;;;;;;4964639;28;20065;-82
2021/12/25 06:20:06;;;;;;;6.85;4.90;;;1.00;99.90;;;;;;4957894;28;20039;-82
2021/12/25 06:22:32;;;;;;;6.15;5.05;;;1.00;99.90;;;;;;4956873;28;20062;-82
2021/12/25 06:24:58;;;;;;;8.90;5.30;;;0.90;99.90;;;;;;4961128;28;20542;-82
2021/12/25 06:27:24;;;;;;;5.57;4.82;;;0.90;99.90;;;;;;4956671;28;20019;-82
2021/12/25 06:29:50;;;;;;;5.40;4.50;;;0.90;99.90;;;;;;4957065;28;20031;-83
2021/12/25 06:32:17;;;;;;;6.45;4.60;;;0.90;99.90;;;;;;4965722;28;20034;-82
2021/12/25 06:34:44;;;;;;;5.38;4.35;;;0.80;99.90;;;;;;4961601;28;20467;-82
2021/12/25 06:37:10;;;;;;;5.35;4.15;;;0.80;99.90;;;;;;4963877;28;20037;-82
2021/12/25 06:39:36;;;;;;;6.55;4.55;;;0.80;99.90;;;;;;4958385;28;20037;-83
2021/12/25 06:42:02;;;;;;;6.57;4.70;;;0.80;99.90;;;;;;4962402;28;20122;-83
2021/12/25 06:44:28;;;;;;;4.85;4.13;;;0.80;99.90;;;;;;4957631;28;20098;-83
2021/12/25 06:47:00;;;;;;;4.81;3.40;;;0.70;99.90;;;;;;4477034;28;10002769;-81
2021/12/25 06:49:26;;;;;;;8.02;4.10;;;0.70;99.90;;;;;;4972214;28;20134;-83
2021/12/25 06:51:52;;;;;;;4.40;3.60;;;0.70;99.90;;;;;;4970726;28;20045;-80
2021/12/25 06:54:19;;;;;;;7.40;3.92;;;0.60;99.90;;;;;;4976028;28;20042;-89
2021/12/25 06:56:46;;;;;;;7.07;3.75;;;0.60;99.90;;;;;;4981569;28;20031;-84
2021/12/25 06:59:12;;;;;;;3.63;3.13;;;0.50;99.90;;;;;;4964834;28;20156;-85
2021/12/25 07:01:39;;;;;;;5.93;3.50;;;0.50;99.90;;;;;;4971411;28;20045;-84
2021/12/25 07:04:07;;;;;;;4.78;3.33;;;0.40;99.90;;;;;;4976800;28;20058;-84
2021/12/25 07:06:36;;;;;;;4.90;2.95;;;0.40;99.90;;;;;;4971424;28;20050;-83
2021/12/25 07:09:02;;;;;;;4.65;3.00;;;0.40;99.90;;;;;;4972995;28;20114;-83
2021/12/25 07:11:28;;;;;;;5.43;2.95;;;0.50;99.90;;;;;;4990062;28;20157;-83
2021/12/25 07:13:53;;;;;;;3.95;2.92;;;0.50;99.90;;;;;;4980157;28;20190;-84
2021/12/25 07:16:19;;;;;;;5.13;3.15;;;0.40;99.90;;;;;;4970986;28;20030;-84
2021/12/25 07:18:45;;;;;;;3.28;2.72;;;0.40;99.90;;;;;;4978071;28;20030;-83
2021/12/25 07:21:11;;;;;;;3.55;2.85;;;0.40;99.90;;;;;;4964150;28;20044;-83
2021/12/25 07:23:37;;;;;;;3.67;2.60;;;0.30;99.90;;;;;;4961482;28;20035;-85
2021/12/25 07:26:04;;;;;;;4.00;2.72;;;0.30;99.90;;;;;;4968232;28;20479;-83
2021/12/25 07:28:30;;;;;;;3.88;3.00;;;0.30;99.90;;;;;;4968288;28;20031;-84
2021/12/25 07:30:58;;;;;;;3.67;2.75;;;0.30;99.90;;;;;;4963484;28;20036;-84
2021/12/25 07:33:24;;;;;;;3.60;2.75;;;0.20;99.90;;;;;;4962972;28;20073;-84
2021/12/25 07:35:50;;;;;;;3.88;2.60;;;0.20;99.90;;;;;;4965405;28;20039;-84
2021/12/25 07:38:18;;;;;;;3.70;2.88;;;0.20;99.90;;;;;;4960521;28;20035;-83
2021/12/25 07:40:44;;;;;;;4.10;2.80;;;0.10;99.90;;;;;;4966432;28;20196;-83
2021/12/25 07:43:10;;;;;;;6.38;2.97;;;0.10;99.90;;;;;;4969018;28;20031;-83
2021/12/25 07:45:36;;;;;;;4.25;2.80;;;0.10;99.90;;;;;;4965816;28;20035;-83
2021/12/25 07:48:02;;;;;;;4.47;2.60;;;0.10;99.90;;;;;;4959228;28;20725;-82
2021/12/25 07:50:30;;;;;;;4.78;2.63;;;0.00;99.90;;;;;;4963160;28;20043;-82
2021/12/25 07:52:57;;;;;;;2.55;2.05;;;0.00;99.90;;;;;;4960604;28;20173;-77
2021/12/25 07:55:23;;;;;;;2.80;2.38;;;0.00;99.90;;;;;;4955136;28;20376;-79
2021/12/25 07:57:49;;;;;;;4.85;2.22;;;0.00;99.90;;;;;;4957445;28;20547;-80
2021/12/25 08:00:16;;;;;;;4.53;2.55;;;0.00;99.90;;;;;;4956475;28;20122;-79
2021/12/25 08:02:44;;;;;;;6.25;2.60;;;0.00;99.90;;;;;;4961039;28;20431;-79
2021/12/25 08:05:10;;;;;;;2.40;2.10;;;-0.10;99.90;;;;;;4963545;28;20114;-82
2021/12/25 08:07:36;;;;;;;4.85;2.47;;;-0.10;99.90;;;;;;4959634;28;20086;-81
2021/12/25 08:10:20;;;;;;;3.17;2.20;;;-0.10;99.90;;;;;;4964265;28;20479;-82
2021/12/25 08:12:55;;;;;;;3.78;1.90;;;0.00;99.90;;;;;;4968322;28;20041;-81
2021/12/25 08:15:23;;;;;;;2.70;2.03;;;-0.10;99.90;;;;;;4957042;28;20521;-78
2021/12/25 08:17:49;;;;;;;4.68;2.20;;;0.00;99.90;;;;;;4960155;28;20848;-78
2021/12/25 08:20:15;;;;;;;3.17;1.92;;;-0.10;99.90;;;;;;4958576;28;20706;-78
2021/12/25 08:22:41;;;;;;;3.22;1.85;;;-0.10;99.90;;;;;;4953890;28;20094;-79
2021/12/25 08:25:09;;;;;;;2.20;1.90;;;-0.10;99.90;;;;;;4961786;28;20022;-79
2021/12/25 08:27:35;;;;;;;2.35;2.00;;;-0.10;99.90;;;;;;4966458;28;20050;-77
2021/12/25 08:30:01;;;;;;;2.30;1.90;;;-0.10;99.90;;;;;;4955426;28;20693;-76
2021/12/25 08:32:27;;;;;;;2.40;1.80;;;-0.10;99.90;;;;;;4955828;28;20062;-75
2021/12/25 08:34:52;;;;;;;4.47;1.88;;;-0.10;99.90;;;;;;4962665;28;20597;-77
2021/12/25 08:37:22;;;;;;;2.88;1.92;;;-0.10;99.90;;;;;;4957162;28;20027;-78
2021/12/25 08:39:49;;;;;;;3.40;2.35;;;-0.10;99.90;;;;;;4963272;28;20037;-77
2021/12/25 08:42:15;;;;;;;3.65;2.00;;;-0.10;99.90;;;;;;4964293;28;20033;-78
2021/12/25 08:44:54;;;;;;;3.13;2.35;;;0.00;99.90;;;;;;4957737;28;20034;-81
2021/12/25 08:47:20;;;;;;;2.58;2.05;;;0.00;99.90;;;;;;4965000;28;20079;-82
2021/12/25 08:49:47;;;;;;;4.68;2.53;;;0.00;99.90;;;;;;4968640;28;20043;-81
2021/12/25 08:52:16;;;;;;;2.65;2.13;;;0.00;99.90;;;;;;4967743;28;20708;-81
2021/12/25 08:54:43;;;;;;;2.40;2.10;;;0.00;99.90;;;;;;4971290;28;20058;-83
2021/12/25 08:57:09;;;;;;;2.88;1.80;;;0.00;99.90;;;;;;4954952;28;20224;-84
2021/12/25 08:59:37;;;;;;;3.50;2.10;;;0.10;99.90;;;;;;4960845;28;20157;-82
2021/12/25 09:02:07;;;;;;;4.22;2.20;;;0.00;99.90;;;;;;4962720;28;20042;-81
2021/12/25 09:04:34;;;;;;;3.45;2.22;;;0.00;99.90;;;;;;4966260;28;20023;-81
2021/12/25 09:07:00;;;;;;;2.83;2.10;;;0.00;99.90;;;;;;4961372;28;20130;-80
2021/12/25 09:09:26;;;;;;;3.22;1.98;;;-0.10;99.90;;;;;;4961688;28;20154;-81
2021/12/25 09:11:51;;;;;;;2.75;2.08;;;-0.10;99.90;;;;;;4958385;28;20491;-81
2021/12/25 09:14:17;;;;;;;3.95;1.98;;;-0.10;99.90;;;;;;4954145;28;20034;-80
2021/12/25 09:16:43;;;;;;;3.55;1.90;;;-0.10;99.90;;;;;;4965475;28;20555;-81
2021/12/25 09:19:08;;;;;;;3.35;2.00;;;-0.10;99.90;;;;;;4968131;28;20038;-82
2021/12/25 09:21:34;;;;;;;3.38;2.10;;;-0.10;99.90;;;;;;4958105;28;20035;-79
2021/12/25 09:24:00;;;;;;;4.95;1.77;;;-0.10;99.90;;;;;;4958925;28;20089;-79
2021/12/25 09:26:26;;;;;;;4.72;2.38;;;-0.10;99.90;;;;;;4962965;28;20487;-80
2021/12/25 09:28:51;;;;;;;5.15;2.42;;;-0.10;99.90;;;;;;4963007;28;20023;-79
2021/12/25 09:31:18;;;;;;;2.10;1.90;;;-0.10;99.90;;;;;;4950255;28;20756;-81
2021/12/25 09:33:44;;;;;;;3.95;2.47;;;0.00;99.90;;;;;;4967359;28;20035;-80
2021/12/25 09:36:10;;;;;;;4.85;2.25;;;0.00;99.90;;;;;;4960787;28;20035;-79
2021/12/25 09:38:36;;;;;;;2.28;1.90;;;0.00;99.90;;;;;;4963541;28;20093;-79
2021/12/25 09:41:04;;;;;;;2.10;1.85;;;0.10;99.90;;;;;;4958855;28;20509;-80
2021/12/25 09:43:30;;;;;;;4.57;1.85;;;0.10;99.90;;;;;;4962705;28;20038;-79
2021/12/25 09:45:56;;;;;;;2.05;1.33;;;0.10;99.90;;;;;;4960718;28;20039;-79
2021/12/25 09:48:22;;;;;;;1.73;1.50;;;0.10;99.90;;;;;;4964156;28;20031;-80
2021/12/25 09:50:48;;;;;;;4.13;1.50;;;0.00;99.90;;;;;;4968212;28;20035;-80
2021/12/25 09:53:16;;;;;;;1.45;1.27;;;0.00;99.90;;;;;;4963344;28;20395;-80
2021/12/25 09:55:43;;;;;;;1.50;1.40;;;0.00;99.90;;;;;;4966789;28;20062;-80
2021/12/25 09:58:09;;;;;;;2.80;1.50;;;0.00;99.90;;;;;;4963378;28;20038;-81
2021/12/25 10:00:44;;;;;;;3.20;1.20;;;0.00;99.90;;;;;;4963326;28;20137;-80
2021/12/25 10:03:10;;;;;;;1.55;1.20;;;-0.10;99.90;;;;;;4958324;28;20039;-80
2021/12/25 10:05:43;;;;;;;1.40;1.30;;;-0.10;99.90;;;;;;4954192;28;20037;-81
2021/12/25 10:08:17;;;;;;;3.67;1.50;;;-0.20;99.90;;;;;;4967793;28;20027;-81
2021/12/25 10:10:50;;;;;;;2.33;1.40;;;-0.20;99.90;;;;;;4967915;28;20506;-80
2021/12/25 10:13:38;;;;;;;1.65;1.38;;;-0.30;99.90;;;;;;4960823;28;20023;-80
2021/12/25 10:16:26;;;;;;;2.67;1.55;;;-0.30;99.90;;;;;;4953478;28;20034;-81
2021/12/25 10:18:55;;;;;;;4.80;1.33;;;-0.20;99.90;;;;;;4964595;28;20093;-80
2021/12/25 10:21:26;;;;;;;1.80;1.30;;;-0.10;99.90;;;;;;4956998;28;20085;-81
2021/12/25 10:24:07;;;;;;;2.85;1.60;;;-0.20;99.90;;;;;;4954273;28;20162;-80
2021/12/25 10:26:36;;;;;;;3.28;1.75;;;;;;;;;;4957959;28;20031;-82
2021/12/25 10:29:16;;;;;;;2.72;1.40;;;;;;;;;;4960221;28;20033;-82
2021/12/25 10:31:42;;;;;;;2.72;1.80;;;;;;;;;;4959536;28;20030;-82
2021/12/25 10:34:34;;;;;;;2.08;1.40;;;;;;;;;;4967828;28;20096;-81
2021/12/25 10:37:09;;;;;;;4.05;1.63;;;;;;;;;;4963134;28;20039;-82
2021/12/25 10:39:36;;;;;;;2.00;1.75;;;;;;;;;;4972562;28;20030;-81
2021/12/25 10:42:10;;;;;;;2.05;1.48;;;;;;;;;;4972831;28;20047;-81
2021/12/25 10:44:54;;;;;;;1.80;1.50;;;;;;;;;;4949750;28;20429;-82
2021/12/25 10:47:22;;;;;;;2.20;1.60;;;;;;;;;;4960232;28;20038;-81
2021/12/25 10:49:49;;;;;;;3.03;1.77;;;;;;;;;;4969580;28;20035;-82
2021/12/25 10:52:24;;;;;;;2.50;1.50;;;0.60;99.90;;;;;;4968920;28;20158;-81
2021/12/25 10:55:06;;;;;;;1.58;1.40;;;0.70;99.90;;;;;;4969478;28;20039;-81
2021/12/25 10:57:41;;;;;;;3.35;1.40;;;0.70;99.90;;;;;;4972226;28;20122;-81
2021/12/25 11:00:13;;;;;;;1.92;1.30;;;0.70;99.90;;;;;;4969786;28;20035;-81
2021/12/25 11:02:45;;;;;;;2.97;1.48;;;0.70;99.90;;;;;;4970186;28;20110;-80
2021/12/25 11:05:33;;;;;;;3.75;1.45;;;0.70;99.90;;;;;;4969623;28;20114;-81
2021/12/25 11:08:13;;;;;;;1.48;1.38;;;0.60;99.90;;;;;;4970029;28;20035;-81
2021/12/25 11:10:42;;;;;;;1.30;1.20;;;0.60;99.90;;;;;;4971960;28;20187;-81
2021/12/25 11:13:37;;;;;;;1.88;1.55;;;0.60;99.90;;;;;;4972500;28;20047;-80
2021/12/25 11:16:08;;;;;;;1.85;1.40;;;0.70;99.90;;;;;;4959305;28;20038;-80
2021/12/25 11:19:12;;;;;;;2.40;1.60;;;0.50;99.90;;;;;;4957724;28;20165;-80
2021/12/25 11:21:44;;;;;;;2.17;1.42;;;0.40;99.90;;;;;;4972026;28;20030;-79
2021/12/25 11:24:17;;;;;;;3.53;1.70;;;0.30;99.90;;;;;;4965254;28;20029;-80
2021/12/25 11:26:47;;;;;;;3.50;1.52;;;0.20;99.90;;;;;;4952549;28;20023;-79
2021/12/25 11:29:16;;;;;;;2.00;1.35;;;0.10;99.90;;;;;;4959104;28;20037;-79
2021/12/25 11:31:44;;;;;;;2.20;1.50;;;0.10;99.90;;;;;;4972038;28;20026;-79
2021/12/25 11:34:11;;;;;;;4.43;1.67;;;0.10;99.90;;;;;;4957100;28;20043;-80
2021/12/25 11:36:45;;;;;;;2.35;1.40;;;0.10;99.90;;;;;;4952585;28;20027;-79
2021/12/25 11:39:12;;;;;;;2.80;1.75;;;0.10;99.90;;;;;;4971147;28;20019;-79
2021/12/25 11:41:39;;;;;;;1.60;1.45;;;0.10;99.90;;;;;;4969281;28;20463;-79
2021/12/25 11:44:28;;;;;;;2.50;1.65;;;0.20;99.90;;;;;;4971870;28;20034;-79
2021/12/25 11:46:54;;;;;;;2.15;1.40;;;0.20;99.90;;;;;;4970428;28;20042;-79
2021/12/25 11:49:20;;;;;;;2.92;1.42;;;0.20;99.90;;;;;;4969586;28;20102;-79
2021/12/25 11:51:47;;;;;;;2.03;1.50;;;0.30;99.90;;;;;;4952147;28;20031;-79
2021/12/25 11:59:46;;;;;;;5.28;1.40;;;0.20;99.90;;;;;;4967548;28;20026;-78
2021/12/25 12:02:12;;;;;;;3.67;2.13;;;0.30;99.90;;;;;;4967814;28;20678;-78
2021/12/25 12:04:38;;;;;;;4.28;1.67;;;0.30;99.90;;;;;;4970779;28;20469;-78
2021/12/25 12:07:08;;;;;;;2.88;1.73;;;0.30;99.90;;;;;;4970478;28;20057;-78
2021/12/25 12:09:46;;;;;;;3.05;1.83;;;0.30;99.90;;;;;;4975972;28;20030;-78
2021/12/25 12:12:16;;;;;;;2.63;1.98;;;0.30;99.90;;;;;;4966973;28;20037;-79
2021/12/25 12:14:43;;;;;;;3.75;2.05;;;0.30;99.90;;;;;;4958209;28;20251;-78
2021/12/25 12:17:17;;;;;;;5.82;2.08;;;0.20;99.90;;;;;;4971034;28;20057;-78
2021/12/25 12:19:45;;;;;;;6.03;2.00;;;0.40;99.90;;;;;;4970374;28;20026;-78
2021/12/25 12:22:16;;;;;;;3.72;2.13;;;0.30;99.90;;;;;;4971086;28;20038;-79
2021/12/25 12:27:35;;;;;;;2.67;2.22;;;0.30;99.90;;;;;;4970048;28;20470;-78
2021/12/25 12:30:06;;;;;;;5.90;2.53;;;0.30;99.90;;;;;;4971055;28;20023;-79
2021/12/25 12:32:43;;;;;;;3.65;2.70;;;0.30;99.90;;;;;;4971071;28;20023;-78
2021/12/25 12:35:31;;;;;;;6.75;2.88;;;0.20;99.90;;;;;;4967418;28;20400;-78
2021/12/25 12:38:42;;;;;;;3.35;2.50;;;0.20;99.90;;;;;;4951811;29;20041;-78
2021/12/25 12:41:42;;;;;;;4.15;2.78;;;0.10;99.90;;;;;;4956280;28;20459;-78
2021/12/25 12:44:13;;;;;;;4.28;2.60;;;0.20;99.90;;;;;;4968611;28;20118;-78
2021/12/25 12:46:48;;;;;;;5.38;3.10;;;0.10;99.90;;;;;;4961490;28;20034;-78
2021/12/25 12:49:16;;;;;;;3.97;2.92;;;0.20;99.90;;;;;;4970097;28;20506;-78
2021/12/25 12:51:42;;;;;;;5.18;3.08;;;0.20;99.90;;;;;;4960035;28;20117;-78
2021/12/25 12:54:08;;;;;;;3.95;3.03;;;0.20;99.90;;;;;;4956503;28;20035;-78
2021/12/25 12:56:33;;;;;;;4.18;2.85;;;0.20;99.90;;;;;;4952771;28;20059;-78
2021/12/25 12:58:59;;;;;;;5.30;3.00;;;0.10;99.90;;;;;;4960867;28;20631;-78
2021/12/25 13:01:27;;;;;;;5.95;2.70;;;0.10;99.90;;;;;;4959577;28;20083;-78
2021/12/25 13:04:01;;;;;;;5.95;2.67;;;0.10;99.90;;;;;;4968541;28;21859;-78
2021/12/25 13:06:28;;;;;;;4.20;2.95;;;0.10;99.90;;;;;;4960986;28;20050;-78
2021/12/25 13:08:55;;;;;;;6.72;3.25;;;0.10;99.90;;;;;;4968271;28;20050;-78
2021/12/25 13:11:28;;;;;;;3.17;2.50;;;0.10;99.90;;;;;;4970567;28;20031;-78
2021/12/25 13:13:58;;;;;;;4.38;2.90;;;0.10;99.90;;;;;;4969270;28;20030;-78
2021/12/25 13:16:33;;;;;;;4.80;2.60;;;0.10;99.90;;;;;;4951764;28;20101;-78
2021/12/25 13:19:03;;;;;;;2.95;2.25;;;0.10;99.90;;;;;;4962833;28;20089;-78
2021/12/25 13:21:30;;;;;;;2.53;2.22;;;0.10;99.90;;;;;;4951001;28;20034;-78
2021/12/25 13:23:59;;;;;;;3.55;2.45;;;0.20;99.90;;;;;;4958901;28;20035;-77
2021/12/25 13:26:34;;;;;;;4.82;2.50;;;0.10;99.90;;;;;;4970174;28;20444;-77
2021/12/25 13:29:02;;;;;;;3.53;2.38;;;0.10;99.90;;;;;;4958956;28;20447;-78
2021/12/25 13:31:31;;;;;;;3.17;1.98;;;0.10;99.90;;;;;;4950883;28;20023;-77
2021/12/25 13:34:03;;;;;;;3.22;2.05;;;0.10;99.90;;;;;;4959332;28;20046;-78
2021/12/25 13:36:34;;;;;;;2.10;1.80;;;0.10;99.90;;;;;;4963882;28;20051;-78
2021/12/25 13:39:09;;;;;;;3.13;1.92;;;0.10;99.90;;;;;;4953260;28;20039;-78
2021/12/25 13:41:43;;;;;;;3.25;1.90;;;0.10;99.90;;;;;;4967127;28;20118;-78
2021/12/25 13:44:25;;;;;;;3.28;1.83;;;0.20;99.90;;;;;;4958699;28;20038;-78
2021/12/25 13:46:57;;;;;;;2.97;1.80;;;0.20;99.90;;;;;;4969777;28;20026;-78
2021/12/25 13:49:44;;;;;;;2.80;1.88;;;0.20;99.90;;;;;;4964498;28;20110;-79
2021/12/25 13:52:33;;;;;;;2.40;1.85;;;0.30;99.90;;;;;;4967077;28;20122;-78
2021/12/25 13:54:59;;;;;;;2.35;1.88;;;0.30;99.90;;;;;;4966243;28;20432;-79
2021/12/25 13:57:26;;;;;;;3.28;1.80;;;0.30;99.90;;;;;;4969281;28;20034;-79
2021/12/25 13:59:55;;;;;;;2.55;1.80;;;0.30;99.90;;;;;;4954786;28;20570;-78
2021/12/25 14:02:22;;;;;;;4.78;1.67;;;0.20;99.90;;;;;;4966994;28;20106;-78
2021/12/25 14:04:53;;;;;;;3.67;1.75;;;0.10;99.90;;;;;;4969293;28;20042;-79
2021/12/25 14:07:21;;;;;;;1.65;1.42;;;0.00;99.90;;;;;;4969012;28;20039;-78
2021/12/25 14:10:06;;;;;;;2.25;1.67;;;0.00;99.90;;;;;;4969004;28;20034;-78
2021/12/25 14:12:32;;;;;;;2.97;1.77;;;-0.10;99.90;;;;;;4966051;28;20467;-78
2021/12/25 14:15:00;;;;;;;3.30;1.70;;;-0.20;99.90;;;;;;4975303;28;20517;-78
2021/12/25 14:17:26;;;;;;;3.85;1.80;;;-0.20;99.90;;;;;;4968437;28;20030;-78
2021/12/25 14:20:11;;;;;;;2.47;1.50;;;-0.30;99.90;;;;;;4968951;28;20058;-78
2021/12/25 14:22:41;;;;;;;4.22;1.80;;;-0.30;99.90;;;;;;4962078;28;20082;-79
2021/12/25 14:25:09;;;;;;;3.83;1.90;;;-0.30;99.90;;;;;;4964542;28;20027;-78
2021/12/25 14:27:35;;;;;;;2.25;1.63;;;-0.30;99.90;;;;;;4969079;28;20039;-78
2021/12/25 14:30:08;;;;;;;3.42;1.80;;;-0.40;99.90;;;;;;4962221;28;20035;-78
2021/12/25 14:32:33;;;;;;;;;;;-0.40;99.90;;;;;;4963207;28;20571;-78
2021/12/25 14:34:59;;;;;;;2.92;1.60;;;-0.40;99.90;;;;;;4961037;28;19973;-78
2021/12/25 14:37:28;;;;;;;4.03;1.55;;;-0.40;99.90;;;;;;4954915;28;20034;-78